Latest Coastal Weather Observations for Port Kembla Harbour

IDN60701

Issued at 11:32 am EST Friday 26 August 2016 (issued every 10 minutes, with the page automatically refreshed every 10 minutes)

About coastal observations | Map of coastal stations | Coastal observations for NSW | Marine services | Other Formats
Station Details ID: 068253 Name: PORT KEMBLA NTC AWS Lat: -34.47 Lon: 150.91 Height: 0.0 m
Data from the previous 72 hours. | See also: Recent months for locations in New South Wales
Date/Time
EST
Temp
°C
Wind Pressure Rain since
9am
mm
Weather Cloud Vis
km
Sea
Height
m
Swell
Dir  Spd
kts
Gust
kts
hPa Trend Height
m
Period
s
Dir
26/11:30am 14.4 SW 9 15 1018.3 - - - - - - - - -
26/11:00am 13.6 SW 10 15 1018.5 - - - - - - - - -
26/10:30am 13.2 WSW 11 17 1018.5 - - - - - - - - -
26/10:00am 13.1 SW 9 16 1018.5 - - - - - - - - -
26/09:30am 12.3 SW 9 13 1018.5 - - - - - - - - -
26/09:00am 11.6 WSW 9 13 1018.7 - - - - - - - - -
26/08:30am 11.1 WSW 9 12 1018.5 - - - - - - - - -
26/08:00am 10.2 WSW 7 8 1018.1 - - - - - - - - -
26/07:30am 10.4 WSW 6 9 1018.1 - - - - - - - - -
26/07:00am 10.2 WSW 6 9 1018.0 - - - - - - - - -
26/06:30am 10.4 WSW 7 10 1017.3 - - - - - - - - -
26/06:00am 10.1 WSW 9 15 1016.9 - - - - - - - - -
26/05:30am 9.1 WSW 8 10 1016.5 - - - - - - - - -
26/05:00am 9.2 W 7 9 1016.0 - - - - - - - - -
26/04:30am 9.8 WSW 7 9 1015.7 - - - - - - - - -
26/04:00am 9.7 WSW 9 12 1015.1 - - - - - - - - -
26/03:30am 9.2 WSW 9 11 1015.0 - - - - - - - - -
26/03:00am 9.3 W 8 10 1014.8 - - - - - - - - -
26/02:30am 9.4 W 8 14 1014.9 - - - - - - - - -
26/02:00am 9.1 W 9 11 1015.1 - - - - - - - - -
26/01:30am 9.7 W 9 12 1015.4 - - - - - - - - -
26/01:00am 9.6 WSW 8 12 1015.7 - - - - - - - - -
26/12:30am 9.6 SW 10 15 1015.7 - - - - - - - - -
26/12:00am 10.2 SW 14 24 1015.6 - - - - - - - - -
 
Date/Time
EST
Temp
°C
Wind Pressure Rain since
9am
mm
Weather Cloud Vis
km
Sea
Height
m
Swell
Dir  Spd
kts
Gust
kts
hPa Trend Height
m
Period
s
Dir
25/11:30pm 11.2 SW 8 14 1015.2 - - - - - - - - -
25/11:00pm 11.1 WSW 12 17 1014.6 - - - - - - - - -
25/10:30pm 11.2 WSW 8 11 1014.3 - - - - - - - - -
25/10:00pm 11.3 WSW 9 12 1014.1 - - - - - - - - -
25/09:30pm 11.8 WSW 12 18 1014.0 - - - - - - - - -
25/09:00pm 12.3 W 10 16 1013.9 - - - - - - - - -
25/08:30pm 12.9 W 13 19 1013.6 - - - - - - - - -
25/08:00pm 13.3 W 9 12 1013.4 - - - - - - - - -
25/07:30pm 12.9 W 6 8 1013.0 - - - - - - - - -
25/07:00pm 12.6 WSW 5 7 1012.7 - - - - - - - - -
25/06:30pm 13.2 WSW 3 4 1012.1 - - - - - - - - -
25/06:00pm 14.7 S 2 4 1011.6 - - - - - - - - -
25/05:30pm 14.6 S 2 4 1011.2 - - - - - - - - -
25/05:00pm 15.3 SSW 3 6 1010.8 - - - - - - - - -
25/04:30pm 15.0 S 4 7 1010.5 - - - - - - - - -
25/04:00pm 15.1 SSE 6 10 1010.3 - - - - - - - - -
25/03:30pm 14.8 SSE 5 9 1010.2 - - - - - - - - -
25/03:00pm 15.2 SSE 5 10 1010.0 - - - - - - - - -
25/02:30pm 15.2 SSE 6 11 1009.9 - - - - - - - - -
25/02:00pm 14.9 SSW 6 11 1009.7 - - - - - - - - -
25/01:30pm 15.1 SW 9 12 1009.5 - - - - - - - - -
25/01:00pm 15.1 WSW 10 15 1009.6 - - - - - - - - -
25/12:30pm 14.3 SW 11 19 1009.8 - - - - - - - - -
25/12:00pm 13.8 WSW 12 16 1010.0 - - - - - - - - -
25/11:30am 13.6 SW 12 18 1010.1 - - - - - - - - -
25/11:00am 13.4 WSW 12 17 1010.1 - - - - - - - - -
25/10:30am 12.6 WSW 12 17 1010.2 - - - - - - - - -
25/10:00am 12.9 WSW 15 20 1010.2 - - - - - - - - -
25/09:30am 12.5 WSW 14 21 1010.0 - - - - - - - - -
25/09:00am 12.4 WSW 13 19 1009.8 - - - - - - - - -
25/08:30am 12.0 WSW 12 19 1009.7 - - - - - - - - -
25/08:00am 11.5 WSW 11 15 1009.5 - - - - - - - - -
25/07:30am 11.4 WSW 9 13 1009.3 - - - - - - - - -
25/07:00am 10.8 WSW 12 16 1008.9 - - - - - - - - -
25/06:30am 10.8 WSW 13 20 1008.6 - - - - - - - - -
25/06:00am 10.7 WSW 11 15 1008.2 - - - - - - - - -
25/05:30am 10.9 SW 11 17 1007.7 - - - - - - - - -
25/05:00am 10.9 WSW 12 17 1007.3 - - - - - - - - -
25/04:30am 10.6 SW 11 16 1007.2 - - - - - - - - -
25/04:00am 10.2 WSW 9 14 1007.2 - - - - - - - - -
25/03:30am 10.2 WSW 13 19 1007.1 - - - - - - - - -
25/03:00am 10.2 WSW 13 17 1007.1 - - - - - - - - -
25/02:30am 10.4 WSW 11 19 1007.3 - - - - - - - - -
25/02:00am 10.3 WSW 11 15 1007.3 - - - - - - - - -
25/01:30am 10.4 WSW 8 13 1007.3 - - - - - - - - -
25/01:00am 10.6 WSW 9 15 1007.5 - - - - - - - - -
25/12:30am 10.4 SW 9 17 1007.4 - - - - - - - - -
25/12:00am 10.4 WSW 9 17 1007.4 - - - - - - - - -
 
Date/Time
EST
Temp
°C
Wind Pressure Rain since
9am
mm
Weather Cloud Vis
km
Sea
Height
m
Swell
Dir  Spd
kts
Gust
kts
hPa Trend Height
m
Period
s
Dir
24/11:30pm 10.4 SW 9 15 1007.5 - - - - - - - - -
24/11:00pm 10.3 WSW 8 11 1008.0 - - - - - - - - -
24/10:30pm 10.6 SW 9 15 1007.8 - - - - - - - - -
24/10:00pm 10.6 WSW 10 13 1007.9 - - - - - - - - -
24/09:30pm 10.6 WSW 10 15 1008.0 - - - - - - - - -
24/09:00pm 10.4 SW 11 18 1008.0 - - - - - - - - -
24/08:30pm 10.5 SW 10 14 1008.2 - - - - - - - - -
24/08:00pm 10.7 WSW 12 17 1008.3 - - - - - - - - -
24/07:30pm 10.6 SW 11 17 1007.9 - - - - - - - - -
24/07:00pm 10.6 SW 11 17 1008.2 - - - - - - - - -
24/06:30pm 10.6 SW 9 13 1008.2 - - - - - - - - -
24/06:00pm 11.4 SSW 8 13 1007.9 - - - - - - - - -
24/05:30pm 13.5 SE 11 18 1007.6 - - - - - - - - -
24/05:00pm 13.7 SE 14 21 1007.0 - - - - - - - - -
24/04:30pm 12.0 SSW 8 15 1007.4 - - - - - - - - -
24/04:00pm 11.6 SW 9 15 1007.8 - - - - - - - - -
24/03:30pm 11.2 SW 8 11 1008.2 - - - - - - - - -
24/03:00pm 11.7 WSW 9 13 1008.5 - - - - - - - - -
24/02:30pm 12.0 SW 8 11 1008.5 - - - - - - - - -
24/02:00pm 12.2 WSW 9 13 1009.1 - - - - - - - - -
24/01:30pm 12.3 SW 5 8 1009.0 - - - - - - - - -
24/01:00pm 12.5 SW 5 9 1009.4 - - - - - - - - -
24/12:30pm 12.2 SW 4 7 1010.0 - - - - - - - - -
24/12:00pm 12.4 S 4 9 1010.9 - - - - - - - - -
24/11:30am 12.8 SSW 4 8 1011.6 - - - - - - - - -
24/11:00am 12.6 S 5 9 1012.4 - - - - - - - - -
24/10:30am 12.7 WSW 6 9 1013.0 - - - - - - - - -
24/10:00am 13.0 SW 5 8 1013.5 - - - - - - - - -
24/09:30am 12.7 SW 5 8 1013.5 - - - - - - - - -
24/09:00am 13.2 SSW 7 13 1013.4 - - - - - - - - -
24/08:30am 13.1 WSW 9 11 1013.7 - - - - - - - - -
24/08:00am 12.8 WSW 9 12 1013.5 - - - - - - - - -
24/07:30am 12.7 SW 7 9 1013.5 - - - - - - - - -
24/07:00am 12.5 SW 7 11 1013.8 - - - - - - - - -
24/06:30am 12.5 WSW 7 10 1013.7 - - - - - - - - -
24/06:00am 12.4 WSW 7 9 1013.4 - - - - - - - - -
24/05:30am 12.2 SW 6 10 1013.4 - - - - - - - - -
24/05:00am 12.2 SW 5 7 1013.9 - - - - - - - - -
24/04:30am 12.4 SW 5 7 1013.9 - - - - - - - - -
24/04:00am 12.2 SW 5 7 1014.2 - - - - - - - - -
24/03:30am 12.2 SW 5 8 1014.3 - - - - - - - - -
24/03:00am 12.4 SW 5 9 1014.5 - - - - - - - - -
24/02:30am 12.4 WSW 9 12 1014.7 - - - - - - - - -
24/02:00am 12.2 SW 7 11 1014.7 - - - - - - - - -
24/01:30am 12.6 SW 8 11 1015.4 - - - - - - - - -
24/01:00am 12.6 WSW 7 11 1015.4 - - - - - - - - -
24/12:30am 12.5 SW 6 8 1015.4 - - - - - - - - -
24/12:00am 12.6 WSW 6 8 1015.8 - - - - - - - - -
 
Date/Time
EST
Temp
°C
Wind Pressure Rain since
9am
mm
Weather Cloud Vis
km
Sea
Height
m
Swell
Dir  Spd
kts
Gust
kts
hPa Trend Height
m
Period
s
Dir
23/11:30pm 12.7 SW 4 6 1015.9 - - - - - - - - -
23/11:00pm 13.0 SW 4 5 1016.1 - - - - - - - - -
23/10:30pm 13.3 WSW 5 7 1016.1 - - - - - - - - -
23/10:00pm 13.6 SW 5 9 1015.7 - - - - - - - - -

Other Formats:

Comma delimited format used in spreadsheet applications
http://www.bom.gov.au/fwo/IDN60701/IDN60701.95745.axf

JavaScript Object Notation format (JSON) in row-major order
http://www.bom.gov.au/fwo/IDN60701/IDN60701.95745.json